Air Navigation Services of Czech Republic  
Last data update:  24.07.2021 06:43:29 UTC česká verze
   METEO Page displayed:  24.07.2021 06:44:48 UTC  
vysvětlivky
METAR EDDB 240620Z 11005KT 070V130 CAVOK 21/14 Q1014 NOSIG=
METAR EDDC 240620Z VRB02KT CAVOK 21/14 Q1013 NOSIG=
METAR EDDE 240620Z 04005KT 010V100 CAVOK 17/13 Q1013 NOSIG=
METAR EDDF 240620Z 05009KT CAVOK 20/14 Q1010 NOSIG=
METAR EDDM 240620Z 06003KT 010V110 CAVOK 19/14 Q1012 NOSIG=
METAR EDDN 240620Z 16003KT 060V210 CAVOK 21/13 Q1012 NOSIG=
METAR EDDP 240620Z VRB02KT CAVOK 18/14 Q1013 NOSIG=
METAR EDQM NIL
METAR EPBY 240630Z 09009KT CAVOK 20/15 Q1016=
METAR EPGD 240630Z 04003KT 350V100 9999 FEW013 20/16 Q1016=
METAR EPKK 240630Z 08004KT CAVOK 20/15 Q1016=
METAR EPKT 240630Z 09004KT 040V120 CAVOK 21/14 Q1016=
METAR EPLL 240630Z VRB02KT CAVOK 21/14 Q1016=
METAR EPPO 240630Z 10005KT CAVOK 21/13 Q1015=
METAR EPRZ 240630Z VRB02KT CAVOK 20/16 Q1016=
METAR EPWA 240630Z 15003KT 130V190 CAVOK 22/15 Q1016 NOSIG=
METAR EPWR 240630Z 12004KT CAVOK 20/16 Q1015=
METAR LHBP 240630Z 00000KT CAVOK 22/15 Q1016 NOSIG=
METAR LHSM 240615Z AUTO 00000KT 9000 NCD 20/15 Q1015 NOSIG=
METAR LKBC 240630Z AUTO /////KT ///V/// CAVOK 18/12 Q1015=
METAR LKCV 240630Z VRB02KT CAVOK 20/12 Q1015 NOSIG RMK BLU BLU=
METAR LKKB 240630Z VRB02KT CAVOK 17/13 Q1014 NOSIG RMK BLU BLU=
METAR LKKU NIL
METAR LKKV 240630Z 03003KT 350V070 CAVOK 19/13 Q1014 RMK REG QNH 1012=
METAR LKLN 240630Z AUTO 05003KT 360V110 CAVOK 18/16 Q1014=
METAR LKMT 240630Z VRB01KT CAVOK 19/14 Q1016 NOSIG RMK REG QNH 1012=
METAR LKNA 240630Z 06005KT CAVOK 20/12 Q1015 NOSIG RMK BLU BLU=
METAR LKPD 240630Z 10005KT CAVOK 20/13 Q1015 NOSIG RMK BLU BLU=
METAR LKPJ 240630Z AUTO 05003KT 020V090 CAVOK 19/12 Q1015=
METAR LKPR 240630Z 05003KT 360V110 CAVOK 18/14 Q1015 NOSIG RMK REG QNH 1012=
METAR LKTB 240630Z 08003KT 040V130 CAVOK 20/12 Q1015 NOSIG RMK REG QNH 1012=
METAR LKVO NIL
METAR LOWI 240620Z 27007KT 9999 FEW060 19/14 Q1014 NOSIG=
METAR LOWL 240620Z VRB01KT CAVOK 20/14 Q1013 NOSIG=
METAR LOWS 240620Z 15007KT CAVOK 20/14 Q1012 NOSIG=
METAR LOWW 240620Z 11007KT 070V140 CAVOK 20/13 Q1014 NOSIG=
METAR LZIB 240630Z 07005KT CAVOK 20/13 Q1015 NOSIG=
METAR LZKZ 240630Z 05004KT 010V080 CAVOK 21/15 Q1016 NOSIG=
METAR LZMC 240600Z 33002KT CAVOK 22/14 Q1015=
METAR LZPP 240630Z 02003KT 330V060 CAVOK 19/14 Q1015=
METAR LZSL 240600Z 00000KT CAVOK 16/13 Q1017=
METAR LZTT 240630Z VRB02KT 9999 FEW060 18/13 Q1017 NOSIG=
METAR LZZI 240630Z VRB02KT CAVOK 19/13 Q1016=